Time,TemperatureF,DewpointF,PressureIn,WindDirection,WindDirectionDegrees,WindSpeedMPH,WindSpeedGustMPH,Humidity,HourlyPrecipIn,Conditions,Clouds,dailyrainin,SoftwareType,DateUTC
2013-05-08 00:01:00,40.0,35.0,-100.00,ESE,109,9.0,12.0,81,0.00,,,-99.99,,2013-05-08 06:01:00,
2013-05-08 00:12:00,40.0,35.0,-100.00,ESE,107,9.0,12.0,82,0.00,,,-99.99,,2013-05-08 06:12:00,
2013-05-08 00:21:00,41.0,35.0,-100.00,ESE,107,10.0,14.0,78,0.00,,,-99.99,,2013-05-08 06:21:00,
2013-05-08 00:32:00,41.0,35.0,-100.00,ESE,112,11.0,16.0,77,-99.99,,,-99.99,,2013-05-08 06:32:00,
2013-05-08 00:41:00,41.0,34.0,-100.00,ESE,113,11.0,14.0,76,0.00,,,-99.99,,2013-05-08 06:41:00,
2013-05-08 00:52:00,42.0,34.0,-100.00,ESE,113,10.0,15.0,74,0.00,,,-99.99,,2013-05-08 06:52:00,
2013-05-08 01:01:00,42.0,34.0,-100.00,ESE,113,11.0,16.0,74,0.00,,,-99.99,,2013-05-08 07:01:00,
2013-05-08 01:11:00,41.0,34.0,-100.00,ESE,110,11.0,16.0,75,0.00,,,-99.99,,2013-05-08 07:11:00,
2013-05-08 01:21:00,42.0,33.0,-100.00,ESE,114,11.0,15.0,73,0.00,,,-99.99,,2013-05-08 07:21:00,
2013-05-08 01:31:00,42.0,33.0,-100.00,ESE,112,10.0,13.0,72,0.00,,,-99.99,,2013-05-08 07:31:00,
2013-05-08 01:42:00,41.0,33.0,-100.00,ESE,107,9.0,11.0,73,0.00,,,-99.99,,2013-05-08 07:42:00,
2013-05-08 01:52:00,40.0,33.0,-100.00,ESE,104,7.0,11.0,75,0.00,,,-99.99,,2013-05-08 07:52:00,
2013-05-08 02:01:00,40.0,33.0,-100.00,East,100,7.0,10.0,75,0.00,,,-99.99,,2013-05-08 08:01:00,
2013-05-08 02:11:00,40.0,33.0,-100.00,East,99,7.0,10.0,75,0.00,,,-99.99,,2013-05-08 08:11:00,
2013-05-08 02:21:00,40.0,32.0,-100.00,East,97,7.0,10.0,73,0.00,,,-99.99,,2013-05-08 08:21:00,
2013-05-08 02:31:00,41.0,32.0,-100.00,East,99,6.0,7.0,72,0.00,,,-99.99,,2013-05-08 08:31:00,
2013-05-08 02:42:00,40.0,32.0,-100.00,East,100,6.0,9.0,72,0.00,,,-99.99,,2013-05-08 08:42:00,
2013-05-08 02:51:00,40.0,32.0,-100.00,ESE,103,5.0,7.0,74,0.00,,,-99.99,,2013-05-08 08:51:00,
2013-05-08 03:02:00,40.0,32.0,-100.00,ESE,114,5.0,9.0,73,0.00,,,-99.99,,2013-05-08 09:02:00,
2013-05-08 03:11:00,40.0,32.0,-100.00,ESE,114,5.0,9.0,73,0.00,,,-99.99,,2013-05-08 09:11:00,
2013-05-08 03:21:00,39.0,31.0,-100.00,East,100,5.0,7.0,74,0.00,,,-99.99,,2013-05-08 09:21:00,
2013-05-08 03:32:00,39.0,31.0,-100.00,SE,133,2.0,4.0,75,0.00,,,-99.99,,2013-05-08 09:32:00,
2013-05-08 03:52:00,38.0,31.0,-100.00,ESE,110,3.0,6.0,76,0.00,,,-99.99,,2013-05-08 09:52:00,
2013-05-08 04:02:00,38.0,31.0,-100.00,ESE,121,2.0,5.0,76,0.00,,,-99.99,,2013-05-08 10:02:00,
2013-05-08 04:12:00,38.0,31.0,-100.00,ESE,116,2.0,5.0,76,0.00,,,-99.99,,2013-05-08 10:12:00,
2013-05-08 04:22:00,40.0,31.0,-100.00,ENE,59,1.0,4.0,73,0.00,,,-99.99,,2013-05-08 10:22:00,
2013-05-08 04:33:00,40.0,31.0,-100.00,ESE,121,1.0,3.0,70,0.00,,,-99.99,,2013-05-08 10:33:00,
2013-05-08 04:42:00,38.0,31.0,-100.00,East,93,1.0,4.0,75,0.00,,,-99.99,,2013-05-08 10:42:00,
2013-05-08 05:02:00,38.0,31.0,-100.00,East,86,4.0,6.0,77,0.00,,,-99.99,,2013-05-08 11:02:00,
2013-05-08 05:11:00,38.0,31.0,-100.00,East,92,2.0,4.0,75,0.00,,,-99.99,,2013-05-08 11:11:00,
2013-05-08 05:22:00,38.0,31.0,-100.00,NE,51,1.0,4.0,76,0.00,,,-99.99,,2013-05-08 11:22:00,
2013-05-08 05:32:00,38.0,31.0,-100.00,East,80,1.0,4.0,75,0.00,,,-99.99,,2013-05-08 11:32:00,
2013-05-08 05:42:00,38.0,31.0,-100.00,East,89,1.0,3.0,75,0.00,,,-99.99,,2013-05-08 11:42:00,
2013-05-08 05:52:00,37.0,30.0,-100.00,ENE,73,1.0,4.0,76,0.00,,,-99.99,,2013-05-08 11:52:00,
2013-05-08 06:01:00,36.0,30.0,-100.00,East,86,5.0,8.0,79,0.00,,,-99.99,,2013-05-08 12:01:00,
2013-05-08 06:11:00,36.0,30.0,-100.00,East,83,5.0,8.0,80,0.00,,,-99.99,,2013-05-08 12:11:00,
2013-05-08 06:21:00,36.0,30.0,-100.00,SE,145,1.0,4.0,79,0.00,,,-99.99,,2013-05-08 12:21:00,
2013-05-08 06:32:00,36.0,30.0,-100.00,ENE,65,2.0,9.0,79,0.00,,,-99.99,,2013-05-08 12:32:00,
2013-05-08 06:41:00,36.0,30.0,-100.00,East,89,7.0,10.0,79,0.00,,,-99.99,,2013-05-08 12:41:00,
2013-05-08 06:51:00,37.0,31.0,-100.00,East,90,8.0,10.0,76,0.00,,,-99.99,,2013-05-08 12:51:00,
2013-05-08 07:01:00,38.0,31.0,-100.00,East,89,7.0,9.0,75,0.00,,,-99.99,,2013-05-08 13:01:00,
2013-05-08 07:11:00,38.0,31.0,-100.00,East,92,6.0,9.0,75,0.00,,,-99.99,,2013-05-08 13:11:00,
2013-05-08 07:21:00,40.0,31.0,-100.00,East,95,5.0,7.0,72,0.00,,,-99.99,,2013-05-08 13:21:00,
2013-05-08 07:32:00,40.0,31.0,-100.00,East,93,6.0,9.0,72,0.00,,,-99.99,,2013-05-08 13:32:00,
2013-05-08 07:42:00,40.0,31.0,-100.00,East,92,6.0,9.0,72,0.00,,,-99.99,,2013-05-08 13:42:00,
2013-05-08 07:52:00,40.0,32.0,-100.00,East,93,5.0,7.0,73,0.00,,,-99.99,,2013-05-08 13:52:00,
2013-05-08 08:02:00,42.0,33.0,-100.00,East,99,4.0,7.0,70,0.00,,,-99.99,,2013-05-08 14:02:00,
2013-05-08 08:11:00,42.0,33.0,-100.00,East,95,4.0,7.0,69,0.00,,,-99.99,,2013-05-08 14:11:00,
2013-05-08 08:21:00,44.0,33.0,-100.00,SE,138,1.0,3.0,65,0.00,,,-99.99,,2013-05-08 14:21:00,
2013-05-08 08:31:00,44.0,34.0,-100.00,ESE,123,3.0,5.0,69,0.00,,,-99.99,,2013-05-08 14:31:00,
2013-05-08 08:51:00,45.0,33.0,-100.00,SE,127,2.0,4.0,61,0.00,,,-99.99,,2013-05-08 14:51:00,
2013-05-08 09:01:00,46.0,33.0,-100.00,South,175,2.0,4.0,60,0.00,,,-99.99,,2013-05-08 15:01:00,
2013-05-08 09:11:00,46.0,33.0,-100.00,South,171,1.0,3.0,59,0.00,,,-99.99,,2013-05-08 15:11:00,
2013-05-08 09:21:00,46.0,33.0,-100.00,East,95,1.0,4.0,59,0.00,,,-99.99,,2013-05-08 15:21:00,
2013-05-08 09:33:00,47.0,33.0,-100.00,NNW,330,2.0,5.0,59,0.00,,,-99.99,,2013-05-08 15:33:00,
2013-05-08 09:42:00,46.0,34.0,-100.00,West,277,4.0,7.0,62,0.00,,,-99.99,,2013-05-08 15:42:00,
2013-05-08 09:52:00,46.0,35.0,-100.00,West,275,6.0,8.0,65,0.03,,,-99.99,,2013-05-08 15:52:00,
2013-05-08 10:03:00,46.0,34.0,-100.00,WNW,287,4.0,7.0,63,0.00,,,-99.99,,2013-05-08 16:03:00,
2013-05-08 10:12:00,46.0,33.0,-100.00,WNW,298,2.0,5.0,61,-99.99,,,-99.99,,2013-05-08 16:12:00,
2013-05-08 10:23:00,48.0,34.0,-100.00,NNE,14,2.0,7.0,59,0.00,,,-99.99,,2013-05-08 16:23:00,
2013-05-08 10:33:00,45.0,33.0,-100.00,ENE,65,9.0,14.0,62,0.00,,,-99.99,,2013-05-08 16:33:00,
2013-05-08 10:52:00,46.0,34.0,-100.00,NE,56,12.0,16.0,64,0.00,,,-99.99,,2013-05-08 16:52:00,
2013-05-08 11:02:00,46.0,34.0,-100.00,ENE,73,12.0,17.0,62,0.00,,,-99.99,,2013-05-08 17:02:00,
2013-05-08 11:12:00,46.0,34.0,-100.00,ENE,68,12.0,17.0,63,0.00,,,-99.99,,2013-05-08 17:12:00,
2013-05-08 11:22:00,47.0,34.0,-100.00,ENE,58,17.0,26.0,61,0.00,,,-99.99,,2013-05-08 17:22:00,
2013-05-08 11:31:00,48.0,33.0,-100.00,NE,56,17.0,26.0,56,0.00,,,-99.99,,2013-05-08 17:31:00,
2013-05-08 11:41:00,48.0,33.0,-100.00,NE,56,17.0,26.0,56,0.00,,,-99.99,,2013-05-08 17:41:00,
2013-05-08 11:52:00,50.0,34.0,-100.00,ENE,59,17.0,23.0,53,0.00,,,-99.99,,2013-05-08 17:52:00,
2013-05-08 12:02:00,52.0,33.0,-100.00,NE,55,13.0,25.0,48,0.00,,,-99.99,,2013-05-08 18:02:00,
2013-05-08 12:11:00,51.0,32.0,-100.00,NE,45,14.0,24.0,47,0.00,,,-99.99,,2013-05-08 18:11:00,
2013-05-08 12:21:00,51.0,33.0,-100.00,NE,38,14.0,25.0,50,0.00,,,-99.99,,2013-05-08 18:21:00,
2013-05-08 12:31:00,48.0,36.0,-100.00,North,353,15.0,24.0,61,0.01,,,-99.99,,2013-05-08 18:31:00,
2013-05-08 12:42:00,46.0,37.0,-100.00,NNE,14,16.0,24.0,71,0.00,,,-99.99,,2013-05-08 18:42:00,
2013-05-08 12:51:00,43.0,35.0,-100.00,NNE,25,15.0,24.0,74,0.00,,,-99.99,,2013-05-08 18:51:00,
2013-05-08 13:01:00,42.0,35.0,-100.00,NE,37,11.0,22.0,74,0.01,,,-99.99,,2013-05-08 19:01:00,
2013-05-08 13:11:00,43.0,35.0,-100.00,East,83,11.0,14.0,73,0.00,,,-99.99,,2013-05-08 19:11:00,
2013-05-08 13:21:00,47.0,34.0,-100.00,NE,47,12.0,26.0,62,0.00,,,-99.99,,2013-05-08 19:21:00,
2013-05-08 13:32:00,49.0,35.0,-100.00,NE,45,12.0,19.0,58,0.00,,,-99.99,,2013-05-08 19:32:00,
2013-05-08 13:42:00,49.0,34.0,-100.00,NE,44,14.0,20.0,55,0.00,,,-99.99,,2013-05-08 19:42:00,
2013-05-08 13:52:00,49.0,33.0,-100.00,NE,45,12.0,21.0,54,0.00,,,-99.99,,2013-05-08 19:52:00,
2013-05-08 14:02:00,51.0,34.0,-100.00,NE,40,11.0,19.0,51,0.00,,,-99.99,,2013-05-08 20:02:00,
2013-05-08 14:11:00,53.0,34.0,-100.00,NE,34,12.0,21.0,48,0.00,,,-99.99,,2013-05-08 20:11:00,
2013-05-08 14:22:00,54.0,33.0,-100.00,NE,34,14.0,33.0,46,0.00,,,-99.99,,2013-05-08 20:22:00,
2013-05-08 14:32:00,49.0,31.0,-100.00,North,7,15.0,28.0,48,0.00,,,-99.99,,2013-05-08 20:32:00,
2013-05-08 14:42:00,44.0,35.0,-100.00,North,4,12.0,27.0,72,0.04,,,-99.99,,2013-05-08 20:42:00,
2013-05-08 14:51:00,45.0,36.0,-100.00,NE,49,12.0,24.0,73,0.00,,,-99.99,,2013-05-08 20:51:00,
2013-05-08 15:01:00,44.0,36.0,-100.00,NE,44,14.0,22.0,73,0.00,,,-99.99,,2013-05-08 21:01:00,
2013-05-08 15:11:00,44.0,37.0,-100.00,NE,45,14.0,23.0,75,0.00,,,-99.99,,2013-05-08 21:11:00,
2013-05-08 15:21:00,45.0,39.0,-100.00,NE,48,15.0,22.0,77,0.00,,,-99.99,,2013-05-08 21:21:00,
2013-05-08 15:33:00,47.0,38.0,-100.00,NE,37,12.0,24.0,71,0.00,,,-99.99,,2013-05-08 21:33:00,
2013-05-08 15:43:00,49.0,39.0,-100.00,NNE,28,11.0,16.0,68,0.00,,,-99.99,,2013-05-08 21:43:00,
2013-05-08 15:52:00,52.0,37.0,-100.00,NNE,23,16.0,22.0,57,0.00,,,-99.99,,2013-05-08 21:52:00,
2013-05-08 16:02:00,54.0,35.0,-100.00,NNE,18,16.0,22.0,48,0.00,,,-99.99,,2013-05-08 22:02:00,
2013-05-08 16:12:00,54.0,36.0,-100.00,NNE,16,17.0,24.0,50,0.00,,,-99.99,,2013-05-08 22:12:00,
2013-05-08 16:22:00,54.0,34.0,-100.00,NNE,13,17.0,25.0,46,0.00,,,-99.99,,2013-05-08 22:22:00,
2013-05-08 16:33:00,53.0,32.0,-100.00,NNE,13,17.0,23.0,45,0.00,,,-99.99,,2013-05-08 22:33:00,
2013-05-08 16:42:00,52.0,37.0,-100.00,NNW,332,12.0,21.0,57,0.00,,,-99.99,,2013-05-08 22:42:00,
2013-05-08 16:52:00,48.0,35.0,-100.00,West,271,12.0,18.0,59,0.00,,,-99.99,,2013-05-08 22:52:00,
2013-05-08 17:01:00,47.0,35.0,-100.00,West,277,9.0,14.0,64,0.00,,,-99.99,,2013-05-08 23:01:00,
2013-05-08 17:11:00,47.0,36.0,-100.00,WSW,254,4.0,10.0,65,0.00,,,-99.99,,2013-05-08 23:11:00,
2013-05-08 17:22:00,48.0,36.0,-100.00,WSW,243,5.0,7.0,61,0.00,,,-99.99,,2013-05-08 23:22:00,
2013-05-08 17:32:00,50.0,36.0,-100.00,West,268,4.0,7.0,58,0.00,,,-99.99,,2013-05-08 23:32:00,
2013-05-08 17:42:00,51.0,35.0,-100.00,WNW,295,6.0,14.0,53,0.00,,,-99.99,,2013-05-08 23:42:00,
2013-05-08 17:52:00,51.0,33.0,-100.00,NW,316,9.0,16.0,49,0.00,,,-99.99,,2013-05-08 23:52:00,
2013-05-08 18:02:00,48.0,35.0,-100.00,North,349,12.0,26.0,58,0.14,,,-99.99,,2013-05-09 00:02:00,
2013-05-08 18:11:00,46.0,31.0,-100.00,North,352,14.0,28.0,56,0.00,,,-99.99,,2013-05-09 00:11:00,
2013-05-08 18:21:00,47.0,35.0,-100.00,NNE,20,7.0,16.0,63,0.01,,,-99.99,,2013-05-09 00:21:00,
2013-05-08 18:32:00,47.0,34.0,-100.00,NNE,25,11.0,19.0,61,0.00,,,-99.99,,2013-05-09 00:32:00,
2013-05-08 18:42:00,47.0,37.0,-100.00,NNE,32,7.0,18.0,67,0.00,,,-99.99,,2013-05-09 00:42:00,
2013-05-08 18:51:00,47.0,37.0,-100.00,NE,37,11.0,20.0,67,0.00,,,-99.99,,2013-05-09 00:51:00,
2013-05-08 19:01:00,47.0,35.0,-100.00,NE,44,12.0,18.0,63,0.00,,,-99.99,,2013-05-09 01:01:00,
2013-05-08 19:11:00,47.0,37.0,-100.00,NNE,27,9.0,15.0,67,0.00,,,-99.99,,2013-05-09 01:11:00,
2013-05-08 19:22:00,47.0,36.0,-100.00,NNE,14,14.0,25.0,66,0.00,,,-99.99,,2013-05-09 01:22:00,
2013-05-08 19:32:00,46.0,37.0,-100.00,NNE,16,15.0,22.0,70,0.00,,,-99.99,,2013-05-09 01:32:00,
2013-05-08 19:42:00,46.0,37.0,-100.00,NNE,14,19.0,27.0,70,0.00,,,-99.99,,2013-05-09 01:42:00,
2013-05-08 19:52:00,44.0,38.0,-100.00,North,3,19.0,26.0,79,0.00,,,-99.99,,2013-05-09 01:52:00,
2013-05-08 20:02:00,43.0,37.0,-100.00,North,10,19.0,26.0,78,0.00,,,-99.99,,2013-05-09 02:02:00,
2013-05-08 20:11:00,43.0,37.0,-100.00,NNE,20,17.0,26.0,81,0.00,,,-99.99,,2013-05-09 02:11:00,
2013-05-08 20:21:00,42.0,37.0,-100.00,NNE,23,17.0,26.0,81,0.00,,,-99.99,,2013-05-09 02:21:00,
2013-05-08 20:32:00,42.0,37.0,-100.00,NNE,20,18.0,26.0,82,0.00,,,-99.99,,2013-05-09 02:32:00,
2013-05-08 20:41:00,42.0,37.0,-100.00,NNE,20,18.0,26.0,82,0.00,,,-99.99,,2013-05-09 02:41:00,
2013-05-08 20:52:00,42.0,37.0,-100.00,NNE,20,18.0,26.0,82,0.00,,,-99.99,,2013-05-09 02:52:00,
2013-05-08 21:01:00,41.0,39.0,-100.00,North,349,16.0,21.0,92,0.04,,,-99.99,,2013-05-09 03:01:00,
2013-05-08 21:11:00,41.0,39.0,-100.00,North,352,15.0,24.0,91,0.00,,,-99.99,,2013-05-09 03:11:00,
2013-05-08 21:21:00,40.0,38.0,-100.00,North,8,17.0,24.0,91,0.01,,,-99.99,,2013-05-09 03:21:00,
2013-05-08 21:33:00,40.0,38.0,-100.00,North,352,14.0,20.0,93,0.00,,,-99.99,,2013-05-09 03:33:00,
2013-05-08 21:43:00,40.0,38.0,-100.00,NNW,335,12.0,18.0,93,0.07,,,-99.99,,2013-05-09 03:43:00,
2013-05-08 21:52:00,40.0,37.0,-100.00,NNE,14,9.0,19.0,90,0.01,,,-99.99,,2013-05-09 03:52:00,
2013-05-08 22:03:00,40.0,38.0,-100.00,NNE,25,5.0,9.0,90,0.00,,,-99.99,,2013-05-09 04:03:00,
2013-05-08 22:12:00,40.0,37.0,-100.00,NNE,23,4.0,7.0,90,0.00,,,-99.99,,2013-05-09 04:12:00,
2013-05-08 22:23:00,41.0,37.0,-100.00,NNE,30,5.0,9.0,87,0.00,,,-99.99,,2013-05-09 04:23:00,
2013-05-08 22:33:00,40.0,37.0,-100.00,NNE,17,5.0,9.0,88,0.00,,,-99.99,,2013-05-09 04:33:00,
2013-05-08 22:43:00,39.0,36.0,-100.00,North,3,4.0,6.0,90,0.00,,,-99.99,,2013-05-09 04:43:00,
2013-05-08 22:52:00,39.0,36.0,-100.00,North,353,4.0,6.0,90,0.00,,,-99.99,,2013-05-09 04:52:00,
2013-05-08 23:02:00,38.0,36.0,-100.00,NNW,343,3.0,6.0,91,0.00,,,-99.99,,2013-05-09 05:02:00,
2013-05-08 23:12:00,39.0,37.0,-100.00,NW,326,3.0,6.0,93,0.00,,,-99.99,,2013-05-09 05:12:00,
2013-05-08 23:22:00,39.0,37.0,-100.00,NNE,13,4.0,6.0,93,0.00,,,-99.99,,2013-05-09 05:22:00,
2013-05-08 23:32:00,39.0,37.0,-100.00,NNE,23,4.0,6.0,92,0.00,,,-99.99,,2013-05-09 05:32:00,
2013-05-08 23:42:00,39.0,37.0,-100.00,NNE,20,5.0,7.0,91,0.00,,,-99.99,,2013-05-09 05:42:00,
2013-05-08 23:51:00,39.0,37.0,-100.00,NNE,20,4.0,7.0,90,0.00,,,-99.99,,2013-05-09 05:51:00,